sensor_id;sensor_type;location;lat;lon;timestamp;temperature;humidity
24636;DHT22;12772;49.794;10.024;2024-02-21T00:03:35;10.60;67.10
24636;DHT22;12772;49.794;10.024;2024-02-21T00:07:37;10.60;67.10
24636;DHT22;12772;49.794;10.024;2024-02-21T00:11:39;10.40;67.00
24636;DHT22;12772;49.794;10.024;2024-02-21T00:15:41;10.40;67.00
24636;DHT22;12772;49.794;10.024;2024-02-21T00:19:43;10.30;66.90
24636;DHT22;12772;49.794;10.024;2024-02-21T00:23:45;10.20;66.80
24636;DHT22;12772;49.794;10.024;2024-02-21T00:27:47;10.20;66.80
24636;DHT22;12772;49.794;10.024;2024-02-21T00:31:49;10.60;67.10
24636;DHT22;12772;49.794;10.024;2024-02-21T00:35:51;10.20;66.80
24636;DHT22;12772;49.794;10.024;2024-02-21T00:39:56;10.60;67.20
24636;DHT22;12772;49.794;10.024;2024-02-21T00:43:58;10.30;66.90
24636;DHT22;12772;49.794;10.024;2024-02-21T00:48:00;10.30;66.90
24636;DHT22;12772;49.794;10.024;2024-02-21T00:52:02;10.20;66.80
24636;DHT22;12772;49.794;10.024;2024-02-21T00:56:05;10.60;67.20
24636;DHT22;12772;49.794;10.024;2024-02-21T01:00:07;10.80;67.30
24636;DHT22;12772;49.794;10.024;2024-02-21T01:04:10;10.60;67.20
24636;DHT22;12772;49.794;10.024;2024-02-21T01:08:12;10.60;67.10
24636;DHT22;12772;49.794;10.024;2024-02-21T01:12:14;10.60;67.20
24636;DHT22;12772;49.794;10.024;2024-02-21T01:16:16;10.10;66.70
24636;DHT22;12772;49.794;10.024;2024-02-21T01:20:18;10.50;67.00
24636;DHT22;12772;49.794;10.024;2024-02-21T01:24:19;10.10;67.20
24636;DHT22;12772;49.794;10.024;2024-02-21T01:28:21;10.40;67.00
24636;DHT22;12772;49.794;10.024;2024-02-21T01:32:23;10.40;67.00
24636;DHT22;12772;49.794;10.024;2024-02-21T01:36:26;9.90;67.40
24636;DHT22;12772;49.794;10.024;2024-02-21T01:40:28;10.40;67.20
24636;DHT22;12772;49.794;10.024;2024-02-21T01:44:30;10.30;67.70
24636;DHT22;12772;49.794;10.024;2024-02-21T01:48:32;10.30;68.10
24636;DHT22;12772;49.794;10.024;2024-02-21T01:52:34;10.30;68.20
24636;DHT22;12772;49.794;10.024;2024-02-21T01:56:37;10.00;68.10
24636;DHT22;12772;49.794;10.024;2024-02-21T02:00:42;10.00;68.30
24636;DHT22;12772;49.794;10.024;2024-02-21T02:04:44;10.30;68.80
24636;DHT22;12772;49.794;10.024;2024-02-21T02:08:47;10.00;68.70
24636;DHT22;12772;49.794;10.024;2024-02-21T02:12:49;10.30;69.10
24636;DHT22;12772;49.794;10.024;2024-02-21T02:16:51;10.10;69.20
24636;DHT22;12772;49.794;10.024;2024-02-21T02:20:52;10.00;69.40
24636;DHT22;12772;49.794;10.024;2024-02-21T02:24:55;9.90;70.60
24636;DHT22;12772;49.794;10.024;2024-02-21T02:28:58;9.90;71.20
24636;DHT22;12772;49.794;10.024;2024-02-21T02:33:00;10.30;71.50
24636;DHT22;12772;49.794;10.024;2024-02-21T02:37:02;10.30;72.30
24636;DHT22;12772;49.794;10.024;2024-02-21T02:41:04;10.30;72.70
24636;DHT22;12772;49.794;10.024;2024-02-21T02:45:07;10.30;73.50
24636;DHT22;12772;49.794;10.024;2024-02-21T02:49:09;10.20;73.80
24636;DHT22;12772;49.794;10.024;2024-02-21T02:53:11;9.90;75.20
24636;DHT22;12772;49.794;10.024;2024-02-21T02:57:13;9.60;75.70
24636;DHT22;12772;49.794;10.024;2024-02-21T03:01:15;9.60;76.00
24636;DHT22;12772;49.794;10.024;2024-02-21T03:05:19;9.70;76.70
24636;DHT22;12772;49.794;10.024;2024-02-21T03:09:21;9.70;76.90
24636;DHT22;12772;49.794;10.024;2024-02-21T03:13:23;10.10;76.70
24636;DHT22;12772;49.794;10.024;2024-02-21T03:17:25;9.60;77.40
24636;DHT22;12772;49.794;10.024;2024-02-21T03:21:29;10.00;77.00
24636;DHT22;12772;49.794;10.024;2024-02-21T03:25:31;10.10;77.10
24636;DHT22;12772;49.794;10.024;2024-02-21T03:29:33;9.80;77.80
24636;DHT22;12772;49.794;10.024;2024-02-21T03:33:35;9.70;77.70
24636;DHT22;12772;49.794;10.024;2024-02-21T03:37:37;9.70;78.00
24636;DHT22;12772;49.794;10.024;2024-02-21T03:41:39;9.70;78.60
24636;DHT22;12772;49.794;10.024;2024-02-21T03:45:41;9.90;78.90
24636;DHT22;12772;49.794;10.024;2024-02-21T03:49:43;9.90;79.30
24636;DHT22;12772;49.794;10.024;2024-02-21T03:53:45;9.90;80.00
24636;DHT22;12772;49.794;10.024;2024-02-21T03:57:46;9.90;80.00
24636;DHT22;12772;49.794;10.024;2024-02-21T04:01:52;9.50;79.70
24636;DHT22;12772;49.794;10.024;2024-02-21T04:05:54;9.90;79.90
24636;DHT22;12772;49.794;10.024;2024-02-21T04:09:56;9.60;79.70
24636;DHT22;12772;49.794;10.024;2024-02-21T04:13:59;9.80;79.90
24636;DHT22;12772;49.794;10.024;2024-02-21T04:18:01;9.90;80.90
24636;DHT22;12772;49.794;10.024;2024-02-21T04:22:03;9.80;80.50
24636;DHT22;12772;49.794;10.024;2024-02-21T04:26:05;9.80;80.80
24636;DHT22;12772;49.794;10.024;2024-02-21T04:30:08;9.50;80.60
24636;DHT22;12772;49.794;10.024;2024-02-21T04:34:10;9.70;80.70
24636;DHT22;12772;49.794;10.024;2024-02-21T04:38:12;9.80;80.70
24636;DHT22;12772;49.794;10.024;2024-02-21T04:42:15;9.80;80.40
24636;DHT22;12772;49.794;10.024;2024-02-21T04:46:17;9.40;80.00
24636;DHT22;12772;49.794;10.024;2024-02-21T04:50:19;9.50;80.20
24636;DHT22;12772;49.794;10.024;2024-02-21T04:54:21;9.70;80.30
24636;DHT22;12772;49.794;10.024;2024-02-21T04:58:23;9.40;79.90
24636;DHT22;12772;49.794;10.024;2024-02-21T05:02:26;9.60;79.80
24636;DHT22;12772;49.794;10.024;2024-02-21T05:06:28;9.70;80.40
24636;DHT22;12772;49.794;10.024;2024-02-21T05:10:30;9.50;79.80
24636;DHT22;12772;49.794;10.024;2024-02-21T05:14:32;9.30;79.50
24636;DHT22;12772;49.794;10.024;2024-02-21T05:18:34;9.20;79.50
24636;DHT22;12772;49.794;10.024;2024-02-21T05:22:36;9.20;79.80
24636;DHT22;12772;49.794;10.024;2024-02-21T05:26:38;9.20;80.30
24636;DHT22;12772;49.794;10.024;2024-02-21T05:30:40;9.50;80.90
24636;DHT22;12772;49.794;10.024;2024-02-21T05:34:43;9.50;81.30
24636;DHT22;12772;49.794;10.024;2024-02-21T05:38:45;9.30;81.70
24636;DHT22;12772;49.794;10.024;2024-02-21T05:42:47;9.20;81.80
24636;DHT22;12772;49.794;10.024;2024-02-21T05:46:51;9.30;82.30
24636;DHT22;12772;49.794;10.024;2024-02-21T05:50:53;9.60;82.40
24636;DHT22;12772;49.794;10.024;2024-02-21T05:54:55;9.60;82.50
24636;DHT22;12772;49.794;10.024;2024-02-21T05:58:57;9.40;82.60
24636;DHT22;12772;49.794;10.024;2024-02-21T06:02:59;9.20;82.40
24636;DHT22;12772;49.794;10.024;2024-02-21T06:07:02;9.50;82.10
24636;DHT22;12772;49.794;10.024;2024-02-21T06:11:05;9.50;81.90
24636;DHT22;12772;49.794;10.024;2024-02-21T06:15:07;9.10;81.60
24636;DHT22;12772;49.794;10.024;2024-02-21T06:19:09;9.20;81.70
24636;DHT22;12772;49.794;10.024;2024-02-21T06:23:12;9.00;81.50
24636;DHT22;12772;49.794;10.024;2024-02-21T06:27:14;9.40;81.80
24636;DHT22;12772;49.794;10.024;2024-02-21T06:31:17;9.40;82.30
24636;DHT22;12772;49.794;10.024;2024-02-21T06:35:19;9.20;81.90
24636;DHT22;12772;49.794;10.024;2024-02-21T06:39:21;9.00;81.80
24636;DHT22;12772;49.794;10.024;2024-02-21T06:43:24;9.20;81.90
24636;DHT22;12772;49.794;10.024;2024-02-21T06:47:26;9.10;82.00
24636;DHT22;12772;49.794;10.024;2024-02-21T06:51:28;9.30;82.30
24636;DHT22;12772;49.794;10.024;2024-02-21T06:55:30;9.40;82.40
24636;DHT22;12772;49.794;10.024;2024-02-21T06:59:32;9.40;82.50
24636;DHT22;12772;49.794;10.024;2024-02-21T07:03:34;9.40;82.80
24636;DHT22;12772;49.794;10.024;2024-02-21T07:07:36;8.90;83.00
24636;DHT22;12772;49.794;10.024;2024-02-21T07:11:38;9.20;82.70
24636;DHT22;12772;49.794;10.024;2024-02-21T07:15:40;9.40;82.80
24636;DHT22;12772;49.794;10.024;2024-02-21T07:19:42;9.40;82.60
24636;DHT22;12772;49.794;10.024;2024-02-21T07:23:44;9.40;82.80
24636;DHT22;12772;49.794;10.024;2024-02-21T07:27:45;9.10;82.60
24636;DHT22;12772;49.794;10.024;2024-02-21T07:31:48;9.50;82.90
24636;DHT22;12772;49.794;10.024;2024-02-21T07:35:52;9.20;82.10
24636;DHT22;12772;49.794;10.024;2024-02-21T07:39:54;9.30;82.10
24636;DHT22;12772;49.794;10.024;2024-02-21T07:43:56;9.60;82.20
24636;DHT22;12772;49.794;10.024;2024-02-21T07:47:58;9.60;82.10
24636;DHT22;12772;49.794;10.024;2024-02-21T07:52:01;9.10;81.80
24636;DHT22;12772;49.794;10.024;2024-02-21T07:56:04;9.60;82.20
24636;DHT22;12772;49.794;10.024;2024-02-21T08:00:06;9.60;81.90
24636;DHT22;12772;49.794;10.024;2024-02-21T08:04:10;9.80;81.70
24636;DHT22;12772;49.794;10.024;2024-02-21T08:08:12;9.80;81.60
24636;DHT22;12772;49.794;10.024;2024-02-21T08:12:19;9.60;80.80
24636;DHT22;12772;49.794;10.024;2024-02-21T08:16:20;9.60;80.10
24636;DHT22;12772;49.794;10.024;2024-02-21T08:20:22;9.60;79.80
24636;DHT22;12772;49.794;10.024;2024-02-21T08:24:24;9.80;79.90
24636;DHT22;12772;49.794;10.024;2024-02-21T08:28:26;9.70;79.00
24636;DHT22;12772;49.794;10.024;2024-02-21T08:32:29;9.40;78.50
24636;DHT22;12772;49.794;10.024;2024-02-21T08:36:32;9.50;78.80
24636;DHT22;12772;49.794;10.024;2024-02-21T08:40:35;9.60;78.70
24636;DHT22;12772;49.794;10.024;2024-02-21T08:44:39;9.90;78.90
24636;DHT22;12772;49.794;10.024;2024-02-21T08:48:41;9.90;78.20
24636;DHT22;12772;49.794;10.024;2024-02-21T08:52:44;10.00;77.00
24636;DHT22;12772;49.794;10.024;2024-02-21T08:56:46;9.90;77.50
24636;DHT22;12772;49.794;10.024;2024-02-21T09:00:48;9.80;76.80
24636;DHT22;12772;49.794;10.024;2024-02-21T09:04:50;9.80;76.40
24636;DHT22;12772;49.794;10.024;2024-02-21T09:08:52;10.40;75.90
24636;DHT22;12772;49.794;10.024;2024-02-21T09:12:53;10.50;75.50
24636;DHT22;12772;49.794;10.024;2024-02-21T09:16:56;10.20;75.30
24636;DHT22;12772;49.794;10.024;2024-02-21T09:20:58;10.50;74.80
24636;DHT22;12772;49.794;10.024;2024-02-21T09:25:01;10.80;74.80
24636;DHT22;12772;49.794;10.024;2024-02-21T09:29:04;11.00;73.90
24636;DHT22;12772;49.794;10.024;2024-02-21T09:33:06;11.10;73.40
24636;DHT22;12772;49.794;10.024;2024-02-21T09:37:08;11.10;72.30
24636;DHT22;12772;49.794;10.024;2024-02-21T09:41:17;11.00;71.20
24636;DHT22;12772;49.794;10.024;2024-02-21T09:45:24;11.00;70.30
24636;DHT22;12772;49.794;10.024;2024-02-21T09:49:33;11.40;69.60
24636;DHT22;12772;49.794;10.024;2024-02-21T09:53:38;11.40;69.80
24636;DHT22;12772;49.794;10.024;2024-02-21T09:57:44;11.40;69.00
24636;DHT22;12772;49.794;10.024;2024-02-21T10:01:46;11.40;69.30
24636;DHT22;12772;49.794;10.024;2024-02-21T10:05:49;11.40;69.20
24636;DHT22;12772;49.794;10.024;2024-02-21T10:10:04;11.10;68.50
24636;DHT22;12772;49.794;10.024;2024-02-21T10:14:08;11.10;67.60
24636;DHT22;12772;49.794;10.024;2024-02-21T10:18:10;11.50;67.80
24636;DHT22;12772;49.794;10.024;2024-02-21T10:22:12;11.60;67.90
24636;DHT22;12772;49.794;10.024;2024-02-21T10:26:19;11.30;67.70
24636;DHT22;12772;49.794;10.024;2024-02-21T10:30:21;11.70;68.00
24636;DHT22;12772;49.794;10.024;2024-02-21T10:34:23;11.80;67.20
24636;DHT22;12772;49.794;10.024;2024-02-21T10:38:25;11.80;66.70
24636;DHT22;12772;49.794;10.024;2024-02-21T10:42:29;11.90;66.50
24636;DHT22;12772;49.794;10.024;2024-02-21T10:46:32;12.00;66.40
24636;DHT22;12772;49.794;10.024;2024-02-21T10:50:56;11.80;65.30
24636;DHT22;12772;49.794;10.024;2024-02-21T10:55:03;12.00;64.80
24636;DHT22;12772;49.794;10.024;2024-02-21T10:59:07;12.10;64.70
24636;DHT22;12772;49.794;10.024;2024-02-21T11:03:09;12.10;64.10
24636;DHT22;12772;49.794;10.024;2024-02-21T11:07:11;12.10;64.00
24636;DHT22;12772;49.794;10.024;2024-02-21T11:11:13;12.20;63.80
24636;DHT22;12772;49.794;10.024;2024-02-21T11:15:19;12.30;64.10
24636;DHT22;12772;49.794;10.024;2024-02-21T11:19:28;12.40;62.90
24636;DHT22;12772;49.794;10.024;2024-02-21T11:23:31;12.50;62.30
24636;DHT22;12772;49.794;10.024;2024-02-21T11:27:33;12.50;60.90
24636;DHT22;12772;49.794;10.024;2024-02-21T11:31:39;12.50;60.70
24636;DHT22;12772;49.794;10.024;2024-02-21T11:35:42;12.60;60.90
24636;DHT22;12772;49.794;10.024;2024-02-21T11:39:44;12.70;60.00
24636;DHT22;12772;49.794;10.024;2024-02-21T11:43:48;12.80;60.10
24636;DHT22;12772;49.794;10.024;2024-02-21T11:47:50;12.90;60.10
24636;DHT22;12772;49.794;10.024;2024-02-21T11:52:01;13.00;60.20
24636;DHT22;12772;49.794;10.024;2024-02-21T11:56:05;13.10;59.10
24636;DHT22;12772;49.794;10.024;2024-02-21T12:00:13;13.10;57.50
24636;DHT22;12772;49.794;10.024;2024-02-21T12:04:15;13.20;57.30
24636;DHT22;12772;49.794;10.024;2024-02-21T12:08:19;13.30;57.80
24636;DHT22;12772;49.794;10.024;2024-02-21T12:12:21;13.40;57.30
24636;DHT22;12772;49.794;10.024;2024-02-21T12:16:23;13.50;55.10
24636;DHT22;12772;49.794;10.024;2024-02-21T12:20:26;13.60;53.60
24636;DHT22;12772;49.794;10.024;2024-02-21T12:24:28;13.60;53.20
24636;DHT22;12772;49.794;10.024;2024-02-21T12:28:31;13.70;52.20
24636;DHT22;12772;49.794;10.024;2024-02-21T12:32:33;13.80;51.90
24636;DHT22;12772;49.794;10.024;2024-02-21T12:36:43;13.80;50.90
24636;DHT22;12772;49.794;10.024;2024-02-21T12:40:45;13.80;50.80
24636;DHT22;12772;49.794;10.024;2024-02-21T12:44:47;13.70;50.20
24636;DHT22;12772;49.794;10.024;2024-02-21T12:48:50;13.70;50.00
24636;DHT22;12772;49.794;10.024;2024-02-21T12:52:52;13.70;50.40
24636;DHT22;12772;49.794;10.024;2024-02-21T12:56:54;13.70;50.00
24636;DHT22;12772;49.794;10.024;2024-02-21T13:00:56;13.80;49.50
24636;DHT22;12772;49.794;10.024;2024-02-21T13:04:58;13.70;47.90
24636;DHT22;12772;49.794;10.024;2024-02-21T13:09:01;13.60;47.80
24636;DHT22;12772;49.794;10.024;2024-02-21T13:13:04;13.50;47.70
24636;DHT22;12772;49.794;10.024;2024-02-21T13:17:06;13.50;47.70
24636;DHT22;12772;49.794;10.024;2024-02-21T13:21:08;13.50;48.40
24636;DHT22;12772;49.794;10.024;2024-02-21T13:25:10;13.50;47.70
24636;DHT22;12772;49.794;10.024;2024-02-21T13:29:15;13.60;47.90
24636;DHT22;12772;49.794;10.024;2024-02-21T13:33:17;13.50;47.70
24636;DHT22;12772;49.794;10.024;2024-02-21T13:37:19;13.50;47.70
24636;DHT22;12772;49.794;10.024;2024-02-21T13:41:22;13.50;47.50
24636;DHT22;12772;49.794;10.024;2024-02-21T13:45:24;13.50;47.70
24636;DHT22;12772;49.794;10.024;2024-02-21T13:49:26;13.50;47.50
24636;DHT22;12772;49.794;10.024;2024-02-21T13:53:28;13.50;47.70
24636;DHT22;12772;49.794;10.024;2024-02-21T13:57:30;13.50;47.70
24636;DHT22;12772;49.794;10.024;2024-02-21T14:01:32;13.50;47.70
24636;DHT22;12772;49.794;10.024;2024-02-21T14:05:35;13.50;47.70
24636;DHT22;12772;49.794;10.024;2024-02-21T14:09:37;13.50;47.70
24636;DHT22;12772;49.794;10.024;2024-02-21T14:13:39;13.50;47.70
24636;DHT22;12772;49.794;10.024;2024-02-21T14:17:41;13.50;47.70
24636;DHT22;12772;49.794;10.024;2024-02-21T14:21:43;13.50;47.70
24636;DHT22;12772;49.794;10.024;2024-02-21T14:25:45;13.50;47.70
24636;DHT22;12772;49.794;10.024;2024-02-21T14:29:47;13.50;47.70
24636;DHT22;12772;49.794;10.024;2024-02-21T14:33:49;13.40;47.60
24636;DHT22;12772;49.794;10.024;2024-02-21T14:37:51;13.30;47.50
24636;DHT22;12772;49.794;10.024;2024-02-21T14:41:56;13.20;47.40
24636;DHT22;12772;49.794;10.024;2024-02-21T14:45:58;13.30;47.50
24636;DHT22;12772;49.794;10.024;2024-02-21T14:50:01;13.30;47.50
24636;DHT22;12772;49.794;10.024;2024-02-21T14:54:05;13.20;47.40
24636;DHT22;12772;49.794;10.024;2024-02-21T14:58:07;13.20;47.40
24636;DHT22;12772;49.794;10.024;2024-02-21T15:02:09;13.30;47.60
24636;DHT22;12772;49.794;10.024;2024-02-21T15:06:11;13.30;47.50
24636;DHT22;12772;49.794;10.024;2024-02-21T15:10:13;13.20;47.40
24636;DHT22;12772;49.794;10.024;2024-02-21T15:14:15;13.30;47.50
24636;DHT22;12772;49.794;10.024;2024-02-21T15:18:17;13.20;47.40
24636;DHT22;12772;49.794;10.024;2024-02-21T15:22:19;13.20;47.40
24636;DHT22;12772;49.794;10.024;2024-02-21T15:26:22;13.20;48.20
24636;DHT22;12772;49.794;10.024;2024-02-21T15:30:25;13.20;48.60
24636;DHT22;12772;49.794;10.024;2024-02-21T15:34:27;13.20;48.70
24636;DHT22;12772;49.794;10.024;2024-02-21T15:38:29;13.10;49.00
24636;DHT22;12772;49.794;10.024;2024-02-21T15:42:31;13.10;49.10
24636;DHT22;12772;49.794;10.024;2024-02-21T15:46:33;13.00;49.40
24636;DHT22;12772;49.794;10.024;2024-02-21T15:50:37;13.00;49.80
24636;DHT22;12772;49.794;10.024;2024-02-21T15:54:39;13.00;50.10
24636;DHT22;12772;49.794;10.024;2024-02-21T15:58:41;13.00;50.30
24636;DHT22;12772;49.794;10.024;2024-02-21T16:02:43;13.00;50.30
24636;DHT22;12772;49.794;10.024;2024-02-21T16:06:46;12.90;50.20
24636;DHT22;12772;49.794;10.024;2024-02-21T16:10:51;12.90;50.00
24636;DHT22;12772;49.794;10.024;2024-02-21T16:14:53;12.90;49.70
24636;DHT22;12772;49.794;10.024;2024-02-21T16:18:56;12.90;49.70
24636;DHT22;12772;49.794;10.024;2024-02-21T16:22:58;12.80;48.80
24636;DHT22;12772;49.794;10.024;2024-02-21T16:27:04;12.80;48.40
24636;DHT22;12772;49.794;10.024;2024-02-21T16:31:11;12.70;48.60
24636;DHT22;12772;49.794;10.024;2024-02-21T16:35:13;12.70;48.80
24636;DHT22;12772;49.794;10.024;2024-02-21T16:39:15;12.70;48.90
24636;DHT22;12772;49.794;10.024;2024-02-21T16:43:17;12.80;48.90
24636;DHT22;12772;49.794;10.024;2024-02-21T16:47:19;12.70;48.80
24636;DHT22;12772;49.794;10.024;2024-02-21T16:51:21;12.70;49.00
24636;DHT22;12772;49.794;10.024;2024-02-21T16:55:24;12.70;48.70
24636;DHT22;12772;49.794;10.024;2024-02-21T16:59:26;12.60;48.40
24636;DHT22;12772;49.794;10.024;2024-02-21T17:03:29;12.60;48.60
24636;DHT22;12772;49.794;10.024;2024-02-21T17:07:31;12.60;48.30
24636;DHT22;12772;49.794;10.024;2024-02-21T17:11:37;12.50;48.40
24636;DHT22;12772;49.794;10.024;2024-02-21T17:15:39;12.50;48.20
24636;DHT22;12772;49.794;10.024;2024-02-21T17:19:41;12.50;48.10
24636;DHT22;12772;49.794;10.024;2024-02-21T17:23:43;12.50;47.60
24636;DHT22;12772;49.794;10.024;2024-02-21T17:27:45;12.50;47.70
24636;DHT22;12772;49.794;10.024;2024-02-21T17:31:47;12.50;48.00
24636;DHT22;12772;49.794;10.024;2024-02-21T17:35:49;12.50;48.00
24636;DHT22;12772;49.794;10.024;2024-02-21T17:39:51;12.50;48.10
24636;DHT22;12772;49.794;10.024;2024-02-21T17:43:53;12.50;48.70
24636;DHT22;12772;49.794;10.024;2024-02-21T17:47:55;12.50;48.80
24636;DHT22;12772;49.794;10.024;2024-02-21T17:51:57;12.50;49.10
24636;DHT22;12772;49.794;10.024;2024-02-21T17:55:59;12.50;49.10
24636;DHT22;12772;49.794;10.024;2024-02-21T18:00:01;12.50;49.20
24636;DHT22;12772;49.794;10.024;2024-02-21T18:04:03;12.50;49.50
24636;DHT22;12772;49.794;10.024;2024-02-21T18:08:06;12.50;49.50
24636;DHT22;12772;49.794;10.024;2024-02-21T18:12:08;12.50;49.80
24636;DHT22;12772;49.794;10.024;2024-02-21T18:16:10;12.50;49.90
24636;DHT22;12772;49.794;10.024;2024-02-21T18:20:12;12.50;50.10
24636;DHT22;12772;49.794;10.024;2024-02-21T18:24:14;12.60;51.10
24636;DHT22;12772;49.794;10.024;2024-02-21T18:28:16;12.50;50.30
24636;DHT22;12772;49.794;10.024;2024-02-21T18:32:18;12.50;50.60
24636;DHT22;12772;49.794;10.024;2024-02-21T18:36:20;12.50;50.50
24636;DHT22;12772;49.794;10.024;2024-02-21T18:40:23;12.60;50.70
24636;DHT22;12772;49.794;10.024;2024-02-21T18:44:25;12.50;50.80
24636;DHT22;12772;49.794;10.024;2024-02-21T18:48:27;12.50;51.00
24636;DHT22;12772;49.794;10.024;2024-02-21T18:52:29;12.50;51.10
24636;DHT22;12772;49.794;10.024;2024-02-21T18:56:31;12.50;51.40
24636;DHT22;12772;49.794;10.024;2024-02-21T19:00:34;12.50;51.40
24636;DHT22;12772;49.794;10.024;2024-02-21T19:04:36;12.50;51.30
24636;DHT22;12772;49.794;10.024;2024-02-21T19:08:39;12.40;51.50
24636;DHT22;12772;49.794;10.024;2024-02-21T19:12:41;12.00;51.20
24636;DHT22;12772;49.794;10.024;2024-02-21T19:16:43;12.40;51.40
24636;DHT22;12772;49.794;10.024;2024-02-21T19:20:45;12.30;51.10
24636;DHT22;12772;49.794;10.024;2024-02-21T19:24:48;12.30;50.40
24636;DHT22;12772;49.794;10.024;2024-02-21T19:28:50;12.30;50.20
24636;DHT22;12772;49.794;10.024;2024-02-21T19:32:52;12.20;49.80
24636;DHT22;12772;49.794;10.024;2024-02-21T19:36:54;12.20;49.50
24636;DHT22;12772;49.794;10.024;2024-02-21T19:40:57;12.20;48.90
24636;DHT22;12772;49.794;10.024;2024-02-21T19:44:59;12.20;48.60
24636;DHT22;12772;49.794;10.024;2024-02-21T19:49:01;12.20;48.40
24636;DHT22;12772;49.794;10.024;2024-02-21T19:53:03;12.30;47.90
24636;DHT22;12772;49.794;10.024;2024-02-21T19:57:05;12.20;47.60
24636;DHT22;12772;49.794;10.024;2024-02-21T20:01:09;12.20;47.70
24636;DHT22;12772;49.794;10.024;2024-02-21T20:05:12;12.30;47.50
24636;DHT22;12772;49.794;10.024;2024-02-21T20:09:15;12.30;47.10
24636;DHT22;12772;49.794;10.024;2024-02-21T20:13:18;12.20;46.90
24636;DHT22;12772;49.794;10.024;2024-02-21T20:17:20;12.20;46.20
24636;DHT22;12772;49.794;10.024;2024-02-21T20:21:23;12.20;46.30
24636;DHT22;12772;49.794;10.024;2024-02-21T20:25:25;12.20;46.20
24636;DHT22;12772;49.794;10.024;2024-02-21T20:29:26;12.30;46.50
24636;DHT22;12772;49.794;10.024;2024-02-21T20:33:29;12.30;47.20
24636;DHT22;12772;49.794;10.024;2024-02-21T20:37:30;11.80;46.80
24636;DHT22;12772;49.794;10.024;2024-02-21T20:41:32;12.20;47.10
24636;DHT22;12772;49.794;10.024;2024-02-21T20:45:34;12.20;47.30
24636;DHT22;12772;49.794;10.024;2024-02-21T20:49:37;12.10;46.90
24636;DHT22;12772;49.794;10.024;2024-02-21T20:53:39;12.10;47.10
24636;DHT22;12772;49.794;10.024;2024-02-21T20:57:41;12.10;46.90
24636;DHT22;12772;49.794;10.024;2024-02-21T21:01:43;12.10;47.10
24636;DHT22;12772;49.794;10.024;2024-02-21T21:05:45;12.10;47.20
24636;DHT22;12772;49.794;10.024;2024-02-21T21:09:47;12.20;47.10
24636;DHT22;12772;49.794;10.024;2024-02-21T21:13:49;12.20;47.00
24636;DHT22;12772;49.794;10.024;2024-02-21T21:17:51;12.20;46.80
24636;DHT22;12772;49.794;10.024;2024-02-21T21:21:53;12.20;47.20
24636;DHT22;12772;49.794;10.024;2024-02-21T21:25:56;12.20;46.40
24636;DHT22;12772;49.794;10.024;2024-02-21T21:29:58;12.30;46.50
24636;DHT22;12772;49.794;10.024;2024-02-21T21:34:00;12.30;46.70
24636;DHT22;12772;49.794;10.024;2024-02-21T21:38:03;12.30;46.60
24636;DHT22;12772;49.794;10.024;2024-02-21T21:42:05;12.30;46.40
24636;DHT22;12772;49.794;10.024;2024-02-21T21:46:12;12.30;46.40
24636;DHT22;12772;49.794;10.024;2024-02-21T21:50:15;12.40;46.60
24636;DHT22;12772;49.794;10.024;2024-02-21T21:54:17;12.40;46.50
24636;DHT22;12772;49.794;10.024;2024-02-21T21:58:19;12.40;46.50
24636;DHT22;12772;49.794;10.024;2024-02-21T22:02:21;12.40;46.50
24636;DHT22;12772;49.794;10.024;2024-02-21T22:06:26;12.40;46.50
24636;DHT22;12772;49.794;10.024;2024-02-21T22:10:28;12.40;45.60
24636;DHT22;12772;49.794;10.024;2024-02-21T22:14:30;12.40;45.70
24636;DHT22;12772;49.794;10.024;2024-02-21T22:18:32;12.40;45.70
24636;DHT22;12772;49.794;10.024;2024-02-21T22:22:34;12.50;45.90
24636;DHT22;12772;49.794;10.024;2024-02-21T22:26:37;12.50;45.90
24636;DHT22;12772;49.794;10.024;2024-02-21T22:30:39;12.50;46.20
24636;DHT22;12772;49.794;10.024;2024-02-21T22:34:41;12.50;46.20
24636;DHT22;12772;49.794;10.024;2024-02-21T22:38:43;12.60;46.70
24636;DHT22;12772;49.794;10.024;2024-02-21T22:42:45;12.60;46.70
24636;DHT22;12772;49.794;10.024;2024-02-21T22:46:47;12.60;46.70
24636;DHT22;12772;49.794;10.024;2024-02-21T22:50:49;12.60;46.70
24636;DHT22;12772;49.794;10.024;2024-02-21T22:54:51;12.60;46.70
24636;DHT22;12772;49.794;10.024;2024-02-21T22:58:53;12.60;46.80
24636;DHT22;12772;49.794;10.024;2024-02-21T23:02:57;12.60;46.70
24636;DHT22;12772;49.794;10.024;2024-02-21T23:07:00;12.50;46.60
24636;DHT22;12772;49.794;10.024;2024-02-21T23:11:02;12.50;46.60
24636;DHT22;12772;49.794;10.024;2024-02-21T23:15:05;12.50;46.60
24636;DHT22;12772;49.794;10.024;2024-02-21T23:19:07;12.50;46.60
24636;DHT22;12772;49.794;10.024;2024-02-21T23:23:10;12.40;47.50
24636;DHT22;12772;49.794;10.024;2024-02-21T23:27:12;12.40;48.30
24636;DHT22;12772;49.794;10.024;2024-02-21T23:31:14;12.30;49.00
24636;DHT22;12772;49.794;10.024;2024-02-21T23:35:16;12.30;49.80
24636;DHT22;12772;49.794;10.024;2024-02-21T23:39:19;12.30;50.80
24636;DHT22;12772;49.794;10.024;2024-02-21T23:43:21;11.90;51.80
24636;DHT22;12772;49.794;10.024;2024-02-21T23:47:24;12.10;53.80
24636;DHT22;12772;49.794;10.024;2024-02-21T23:51:27;12.00;55.10
24636;DHT22;12772;49.794;10.024;2024-02-21T23:55:29;11.90;56.90
24636;DHT22;12772;49.794;10.024;2024-02-21T23:59:34;11.80;59.00
